createdAt,value
2018-12-30T00:01:18.243Z,3.12
2018-12-30T00:03:48.785Z,2.33
2018-12-30T00:06:19.759Z,2.50
2018-12-30T00:08:50.494Z,2.55
2018-12-30T00:11:21.049Z,1.70
2018-12-30T00:13:51.584Z,2.17
2018-12-30T00:16:22.216Z,2.05
2018-12-30T00:18:52.771Z,2.17
2018-12-30T00:21:23.326Z,1.80
2018-12-30T00:23:53.950Z,1.70
2018-12-30T00:26:24.540Z,2.10
2018-12-30T00:28:55.136Z,2.00
2018-12-30T00:31:25.820Z,1.80
2018-12-30T00:33:56.429Z,2.10
2018-12-30T00:36:26.993Z,2.37
2018-12-30T00:38:57.619Z,1.75
2018-12-30T00:41:28.179Z,1.50
2018-12-30T00:43:58.785Z,1.90
2018-12-30T00:46:29.352Z,1.93
2018-12-30T00:49:00.023Z,2.00
2018-12-30T00:51:30.633Z,2.30
2018-12-30T00:54:01.482Z,1.67
2018-12-30T00:56:32.287Z,1.32
2018-12-30T00:59:02.922Z,1.98
2018-12-30T01:01:33.510Z,1.70
2018-12-30T01:04:04.149Z,1.50
2018-12-30T01:06:35.134Z,1.40
2018-12-30T01:09:07.781Z,2.08
2018-12-30T01:11:38.306Z,1.42
2018-12-30T01:14:08.903Z,1.30
2018-12-30T01:16:39.605Z,1.20
2018-12-30T01:19:10.266Z,1.90
2018-12-30T01:21:40.953Z,1.25
2018-12-30T01:24:11.578Z,1.98
2018-12-30T01:26:42.160Z,1.70
2018-12-30T01:29:12.958Z,1.70
2018-12-30T01:31:43.951Z,1.80
2018-12-30T01:34:14.555Z,2.05
2018-12-30T01:36:45.107Z,1.25
2018-12-30T01:39:15.786Z,0.82
2018-12-30T01:41:46.828Z,1.10
2018-12-30T01:44:17.398Z,0.90
2018-12-30T01:46:48.077Z,0.80
2018-12-30T01:49:18.683Z,0.65
2018-12-30T01:51:49.282Z,0.70
2018-12-30T01:54:19.974Z,0.70
2018-12-30T01:56:50.524Z,0.80
2018-12-30T01:59:21.203Z,0.50
2018-12-30T02:01:51.969Z,1.10
2018-12-30T02:04:22.593Z,1.10
2018-12-30T02:06:53.171Z,0.50
2018-12-30T02:09:23.933Z,0.80
2018-12-30T02:11:54.511Z,0.70
2018-12-30T02:14:25.090Z,0.90
2018-12-30T02:16:56.178Z,0.70
2018-12-30T02:19:26.818Z,1.17
2018-12-30T02:21:57.412Z,1.10
2018-12-30T02:24:28.039Z,0.90
2018-12-30T02:26:58.544Z,0.70
2018-12-30T02:29:29.092Z,0.90
2018-12-30T02:31:59.709Z,0.60
2018-12-30T02:34:30.265Z,0.40
2018-12-30T02:37:00.802Z,1.50
2018-12-30T02:39:32.086Z,0.60
2018-12-30T02:42:02.688Z,0.80
2018-12-30T02:44:33.276Z,0.50
2018-12-30T02:47:04.008Z,0.65
2018-12-30T02:49:34.865Z,0.88
2018-12-30T02:52:05.455Z,0.90
2018-12-30T02:54:36.113Z,0.75
2018-12-30T02:57:06.617Z,0.60
2018-12-30T02:59:37.199Z,0.90
2018-12-30T03:02:07.822Z,1.10
2018-12-30T03:04:38.424Z,1.40
2018-12-30T03:07:08.965Z,1.15
2018-12-30T03:09:39.602Z,0.80
2018-12-30T03:12:10.165Z,1.85
2018-12-30T03:14:40.694Z,1.27
2018-12-30T03:17:11.363Z,1.20
2018-12-30T03:19:41.881Z,1.70
2018-12-30T03:22:12.784Z,1.30
2018-12-30T03:24:43.444Z,1.25
2018-12-30T03:27:14.006Z,0.90
2018-12-30T03:29:44.568Z,0.90
2018-12-30T03:32:15.222Z,0.72
2018-12-30T03:34:45.784Z,0.90
2018-12-30T03:37:16.343Z,1.50
2018-12-30T03:39:46.978Z,0.85
2018-12-30T03:42:17.575Z,1.00
2018-12-30T03:44:48.169Z,1.30
2018-12-30T03:47:18.812Z,1.10
2018-12-30T03:49:49.366Z,1.20
2018-12-30T03:52:20.014Z,1.90
2018-12-30T03:54:50.603Z,1.20
2018-12-30T03:57:21.196Z,1.60
2018-12-30T03:59:51.871Z,2.12
2018-12-30T04:02:22.418Z,2.37
2018-12-30T04:04:53.032Z,2.20
2018-12-30T04:07:23.669Z,1.92
2018-12-30T04:09:54.225Z,1.67
2018-12-30T04:12:24.899Z,2.00
2018-12-30T04:14:55.561Z,2.73
2018-12-30T04:17:26.125Z,2.87
2018-12-30T04:19:56.727Z,3.73
2018-12-30T04:22:27.322Z,2.33
2018-12-30T04:24:57.916Z,1.90
2018-12-30T04:27:28.443Z,3.90
2018-12-30T04:29:59.171Z,2.17
2018-12-30T04:32:29.649Z,3.05
2018-12-30T04:35:00.185Z,1.70
2018-12-30T04:37:30.802Z,2.20
2018-12-30T04:40:01.303Z,2.00
2018-12-30T04:42:31.815Z,3.20
2018-12-30T04:45:02.418Z,2.47
2018-12-30T04:47:33.008Z,2.60
2018-12-30T04:50:03.540Z,2.65
2018-12-30T04:52:34.135Z,1.50
2018-12-30T04:55:04.658Z,1.95
2018-12-30T04:57:35.189Z,2.72
2018-12-30T05:00:06.023Z,2.45
2018-12-30T05:02:36.513Z,1.10
2018-12-30T05:05:07.133Z,2.10
2018-12-30T05:07:37.775Z,2.60
2018-12-30T05:10:08.311Z,1.50
2018-12-30T05:12:38.852Z,2.00
2018-12-30T05:15:09.502Z,2.17
2018-12-30T05:17:40.097Z,1.42
2018-12-30T05:20:10.581Z,1.65
2018-12-30T05:22:41.164Z,1.70
2018-12-30T05:25:11.715Z,1.92
2018-12-30T05:27:42.287Z,1.67
2018-12-30T05:30:12.851Z,2.25
2018-12-30T05:32:43.383Z,1.70
2018-12-30T05:35:13.932Z,1.57
2018-12-30T05:37:44.541Z,2.58
2018-12-30T05:40:15.125Z,1.72
2018-12-30T05:42:45.668Z,1.60
2018-12-30T05:45:16.231Z,1.95
2018-12-30T05:47:46.772Z,1.80
2018-12-30T05:50:17.328Z,2.00
2018-12-30T05:52:47.943Z,2.53
2018-12-30T05:55:18.500Z,2.67
2018-12-30T05:57:49.041Z,1.52
2018-12-30T06:00:19.651Z,1.60
2018-12-30T06:02:50.143Z,1.60
2018-12-30T06:05:20.674Z,1.77
2018-12-30T06:07:51.260Z,2.15
2018-12-30T06:10:21.813Z,1.30
2018-12-30T06:12:52.352Z,1.00
2018-12-30T06:15:24.600Z,1.70
2018-12-30T06:17:55.274Z,1.60
2018-12-30T06:20:25.804Z,1.65
2018-12-30T06:22:56.336Z,1.98
2018-12-30T06:25:26.913Z,1.65
2018-12-30T06:27:57.426Z,1.40
2018-12-30T06:30:28.068Z,1.30
2018-12-30T06:32:59.209Z,1.50
2018-12-30T06:35:30.340Z,1.80
2018-12-30T06:38:00.901Z,0.98
2018-12-30T06:40:31.391Z,1.10
2018-12-30T06:43:01.861Z,1.90
2018-12-30T06:45:32.388Z,0.95
2018-12-30T06:48:02.846Z,1.50
2018-12-30T06:50:33.336Z,1.20
2018-12-30T06:53:03.837Z,1.10
2018-12-30T06:55:34.312Z,1.50
2018-12-30T06:58:04.799Z,1.30
2018-12-30T07:00:35.617Z,1.52
2018-12-30T07:03:06.104Z,1.47
2018-12-30T07:05:36.591Z,0.90
2018-12-30T07:08:07.140Z,1.70
2018-12-30T07:10:37.637Z,0.90
2018-12-30T07:13:08.130Z,2.08
2018-12-30T07:15:38.691Z,1.45
2018-12-30T07:18:09.073Z,1.90
2018-12-30T07:20:39.547Z,2.55
2018-12-30T07:23:10.157Z,1.87
2018-12-30T07:25:40.637Z,0.90
2018-12-30T07:28:11.146Z,1.27
2018-12-30T07:30:41.681Z,1.25
2018-12-30T07:33:12.166Z,1.75
2018-12-30T07:35:42.647Z,1.70
2018-12-30T07:38:13.194Z,1.22
2018-12-30T07:40:43.724Z,1.10
2018-12-30T07:43:14.231Z,1.00
2018-12-30T07:45:44.766Z,1.00
2018-12-30T07:48:15.256Z,1.50
2018-12-30T07:50:45.739Z,1.30
2018-12-30T07:53:16.332Z,1.02
2018-12-30T07:55:46.845Z,1.33
2018-12-30T07:58:17.323Z,1.15
2018-12-30T08:00:47.864Z,1.40
2018-12-30T08:03:18.338Z,2.62
2018-12-30T08:05:48.833Z,2.00
2018-12-30T08:08:19.363Z,2.10
2018-12-30T08:10:49.871Z,0.90
2018-12-30T08:13:20.313Z,1.50
2018-12-30T08:15:50.912Z,1.10
2018-12-30T08:18:21.389Z,1.35
2018-12-30T08:20:51.810Z,2.20
2018-12-30T08:23:23.764Z,1.85
2018-12-30T08:25:54.238Z,1.37
2018-12-30T08:28:25.102Z,1.62
2018-12-30T08:30:55.915Z,0.80
2018-12-30T08:33:26.399Z,1.35
2018-12-30T08:35:56.866Z,1.95
2018-12-30T08:38:27.508Z,1.30
2018-12-30T08:40:57.969Z,1.40
2018-12-30T08:43:28.403Z,1.60
2018-12-30T08:45:58.943Z,1.17
2018-12-30T08:48:29.415Z,1.07
2018-12-30T08:50:59.937Z,1.30
2018-12-30T08:53:30.494Z,1.60
2018-12-30T08:56:00.987Z,1.75
2018-12-30T08:58:31.471Z,1.87
2018-12-30T09:01:02.041Z,1.50
2018-12-30T09:03:32.521Z,1.77
2018-12-30T09:06:03.032Z,1.90
2018-12-30T09:08:33.639Z,1.87
2018-12-30T09:11:04.073Z,2.62
2018-12-30T09:13:34.545Z,2.17
2018-12-30T09:16:05.118Z,2.65
2018-12-30T09:18:35.588Z,2.10
2018-12-30T09:21:06.046Z,2.72
2018-12-30T09:23:37.465Z,1.98
2018-12-30T09:26:08.283Z,2.10
2018-12-30T09:28:38.789Z,2.40
2018-12-30T09:31:09.346Z,2.05
2018-12-30T09:33:39.962Z,2.35
2018-12-30T09:36:10.460Z,1.30
2018-12-30T09:38:41.014Z,1.22
2018-12-30T09:41:11.467Z,2.40
2018-12-30T09:43:41.938Z,1.40
2018-12-30T09:46:12.546Z,1.93
2018-12-30T09:48:43.027Z,3.10
2018-12-30T09:51:13.499Z,1.72
2018-12-30T09:53:45.218Z,2.17
2018-12-30T09:56:15.897Z,1.87
2018-12-30T09:58:46.410Z,1.77
2018-12-30T10:01:16.917Z,2.07
2018-12-30T10:03:47.440Z,2.17
2018-12-30T10:06:17.926Z,2.45
2018-12-30T10:08:48.482Z,3.20
2018-12-30T10:11:18.945Z,2.30
2018-12-30T10:13:49.362Z,2.47
2018-12-30T10:16:19.932Z,2.27
2018-12-30T10:18:51.692Z,2.10
2018-12-30T10:21:22.258Z,1.67
2018-12-30T10:23:53.269Z,2.87
2018-12-30T10:26:23.736Z,2.20
2018-12-30T10:28:54.203Z,2.35
2018-12-30T10:31:24.822Z,2.10
2018-12-30T10:33:55.284Z,1.60
2018-12-30T10:36:25.785Z,1.72
2018-12-30T10:38:56.256Z,1.60
2018-12-30T10:41:26.756Z,2.08
2018-12-30T10:43:57.072Z,1.83
2018-12-30T10:46:27.629Z,2.90
2018-12-30T10:48:58.096Z,1.70
2018-12-30T10:51:28.558Z,1.60
2018-12-30T10:54:00.759Z,2.35
2018-12-30T10:56:31.352Z,2.58
2018-12-30T10:59:01.812Z,1.60
2018-12-30T11:01:32.385Z,2.00
2018-12-30T11:04:02.858Z,2.30
2018-12-30T11:06:33.282Z,2.58
2018-12-30T11:09:05.817Z,2.37
2018-12-30T11:11:36.313Z,1.60
2018-12-30T11:14:06.844Z,1.45
2018-12-30T11:16:37.386Z,1.70
2018-12-30T11:19:07.898Z,1.98
2018-12-30T11:21:38.400Z,2.22
2018-12-30T11:24:09.024Z,2.10
2018-12-30T11:26:39.554Z,2.20
2018-12-30T11:29:10.048Z,2.40
2018-12-30T11:31:40.580Z,1.62
2018-12-30T11:34:11.153Z,2.00
2018-12-30T11:36:41.696Z,1.55
2018-12-30T11:39:12.336Z,1.82
2018-12-30T11:41:42.830Z,1.95
2018-12-30T11:44:13.325Z,1.30
2018-12-30T11:46:43.892Z,2.10
2018-12-30T11:49:14.396Z,2.17
2018-12-30T11:51:44.879Z,1.75
2018-12-30T11:54:16.536Z,1.98
2018-12-30T11:56:47.303Z,2.50
2018-12-30T11:59:17.863Z,2.27
2018-12-30T12:01:48.385Z,1.80
2018-12-30T12:04:18.923Z,2.15
2018-12-30T12:06:49.485Z,2.30
2018-12-30T12:09:20.002Z,2.70
2018-12-30T12:11:50.524Z,3.45
2018-12-30T12:14:21.009Z,4.75
2018-12-30T12:16:51.527Z,4.20
2018-12-30T12:19:22.089Z,3.90
2018-12-30T12:21:52.588Z,3.70
2018-12-30T12:24:24.444Z,2.95
2018-12-30T12:26:55.144Z,3.98
2018-12-30T12:29:25.738Z,2.10
2018-12-30T12:31:56.219Z,1.90
2018-12-30T12:34:26.754Z,1.47
2018-12-30T18:37:32.608Z,2.50
2018-12-30T18:40:03.103Z,3.12
2018-12-30T18:42:33.659Z,4.10
2018-12-30T18:45:04.278Z,3.60
2018-12-30T18:47:34.838Z,3.10
2018-12-30T18:50:05.633Z,3.27
2018-12-30T18:52:36.160Z,3.05
2018-12-30T18:55:07.096Z,3.00
2018-12-30T18:57:37.652Z,4.30
2018-12-30T19:00:10.611Z,3.08
2018-12-30T19:02:41.102Z,3.33
2018-12-30T19:05:11.734Z,2.95
2018-12-30T19:07:42.294Z,6.67
2018-12-30T19:10:12.824Z,3.67
2018-12-30T19:12:43.311Z,3.43
2018-12-30T19:15:13.882Z,4.28
2018-12-30T19:17:44.364Z,4.30
2018-12-30T19:20:14.835Z,4.20
2018-12-30T19:22:45.407Z,5.22
2018-12-30T19:25:15.892Z,4.12
2018-12-30T19:27:47.232Z,4.60
2018-12-30T19:30:17.719Z,3.90
2018-12-30T19:32:48.151Z,5.00
2018-12-30T19:35:18.927Z,4.10
2018-12-30T19:37:49.675Z,5.45
2018-12-30T19:40:20.177Z,4.12
2018-12-30T19:42:50.690Z,5.12
2018-12-30T19:45:21.201Z,6.10
2018-12-30T19:47:51.721Z,6.00
2018-12-30T19:50:22.216Z,5.53
2018-12-30T19:52:52.772Z,4.87
2018-12-30T19:55:23.314Z,6.20
2018-12-30T19:57:53.835Z,5.60
2018-12-30T20:00:24.430Z,6.33
2018-12-30T20:02:54.925Z,5.87
2018-12-30T20:05:25.399Z,5.93
2018-12-30T20:07:55.956Z,6.40
2018-12-30T20:10:26.543Z,6.78
2018-12-30T20:12:57.826Z,5.85
2018-12-30T20:15:30.462Z,6.37
2018-12-30T20:18:00.966Z,5.40
2018-12-30T20:20:31.451Z,5.40
2018-12-30T20:23:01.987Z,5.80
2018-12-30T20:25:32.522Z,6.00
2018-12-30T20:28:02.973Z,5.50
2018-12-30T20:30:33.525Z,5.05
2018-12-30T20:33:04.007Z,5.10
2018-12-30T20:35:34.551Z,5.42
2018-12-30T20:38:05.105Z,5.53
2018-12-30T20:40:35.622Z,5.70
2018-12-30T20:43:07.415Z,4.80
2018-12-30T20:45:37.944Z,4.45
2018-12-30T20:48:08.443Z,5.05
2018-12-30T20:50:38.865Z,4.83
2018-12-30T20:53:09.339Z,4.87
2018-12-30T20:55:39.796Z,4.80
2018-12-30T20:58:10.397Z,5.00
2018-12-30T21:00:40.910Z,5.40
2018-12-30T21:03:11.426Z,4.60
2018-12-30T21:05:41.907Z,5.03
2018-12-30T21:08:12.437Z,5.45
2018-12-30T21:10:42.972Z,5.17
2018-12-30T21:13:13.488Z,5.40
2018-12-30T21:15:44.009Z,6.47
2018-12-30T21:18:14.558Z,6.65
2018-12-30T21:20:44.963Z,5.37
2018-12-30T21:23:15.758Z,5.97
2018-12-30T21:25:46.286Z,5.83
2018-12-30T21:28:16.755Z,5.60
2018-12-30T21:30:47.294Z,5.55
2018-12-30T21:33:17.787Z,6.17
2018-12-30T21:35:48.308Z,5.67
2018-12-30T21:38:18.812Z,5.75
2018-12-30T21:40:49.318Z,6.75
2018-12-30T21:43:19.743Z,6.22
2018-12-30T21:45:50.280Z,6.40
2018-12-30T21:48:20.788Z,6.30
2018-12-30T21:50:53.826Z,5.63
2018-12-30T21:53:24.731Z,5.40
2018-12-30T21:55:55.280Z,6.33
2018-12-30T21:58:25.807Z,5.40
2018-12-30T22:00:56.358Z,7.20
2018-12-30T22:03:26.884Z,6.58
2018-12-30T22:05:57.437Z,5.50
2018-12-30T22:08:28.069Z,5.58
2018-12-30T22:10:58.557Z,7.12
2018-12-30T22:13:29.057Z,6.20
2018-12-30T22:15:59.615Z,5.47
2018-12-30T22:18:30.179Z,5.95
2018-12-30T22:21:00.680Z,5.80
2018-12-30T22:23:31.228Z,5.93
2018-12-30T22:26:01.751Z,6.20
2018-12-30T22:28:32.224Z,6.27
2018-12-30T22:31:02.758Z,6.00
2018-12-30T22:33:33.235Z,5.87
2018-12-30T22:36:03.763Z,6.15
2018-12-30T22:38:34.278Z,7.00
2018-12-30T22:41:04.828Z,5.87
2018-12-30T22:43:35.314Z,5.40
2018-12-30T22:46:05.838Z,7.40
2018-12-30T22:48:36.323Z,5.75
2018-12-30T22:51:06.820Z,8.18
2018-12-30T22:53:37.389Z,6.10
2018-12-30T22:56:07.877Z,6.37
2018-12-30T22:58:38.374Z,6.85
2018-12-30T23:01:12.203Z,6.73
2018-12-30T23:03:42.724Z,6.62
2018-12-30T23:06:15.731Z,6.40
2018-12-30T23:08:45.487Z,6.58
2018-12-30T23:11:15.964Z,6.47
2018-12-30T23:13:46.433Z,6.08
2018-12-30T23:16:16.970Z,6.55
2018-12-30T23:18:47.453Z,6.40
2018-12-30T23:21:17.996Z,5.67
2018-12-30T23:23:48.519Z,6.27
2018-12-30T23:26:19.035Z,5.80
2018-12-30T23:28:49.536Z,6.12
2018-12-30T23:31:20.068Z,6.08
2018-12-30T23:33:50.618Z,6.33
2018-12-30T23:36:21.109Z,7.10
2018-12-30T23:38:51.695Z,6.40
2018-12-30T23:41:22.189Z,5.30
2018-12-30T23:43:52.727Z,5.40
2018-12-30T23:46:23.258Z,5.20
2018-12-30T23:48:53.797Z,5.00
2018-12-30T23:51:24.270Z,6.80
2018-12-30T23:53:54.804Z,7.75
2018-12-30T23:56:25.306Z,5.20
2018-12-30T23:58:55.767Z,6.45
